sensor_id;sensor_type;location;lat;lon;timestamp;pressure;altitude;pressure_sealevel;temperature;humidity
10700;BME280;5401;41.986;21.452;2023-04-07T00:02:29;98339.78;;;5.75;47.44
10700;BME280;5401;41.986;21.452;2023-04-07T00:04:57;98352.91;;;5.77;47.70
10700;BME280;5401;41.986;21.452;2023-04-07T00:07:24;98349.31;;;5.70;47.97
10700;BME280;5401;41.986;21.452;2023-04-07T00:09:52;98353.66;;;5.63;48.34
10700;BME280;5401;41.986;21.452;2023-04-07T00:12:21;98358.34;;;5.61;48.18
10700;BME280;5401;41.986;21.452;2023-04-07T00:14:49;98356.88;;;5.59;47.78
10700;BME280;5401;41.986;21.452;2023-04-07T00:17:16;98358.88;;;5.57;48.46
10700;BME280;5401;41.986;21.452;2023-04-07T00:19:43;98358.25;;;5.55;48.65
10700;BME280;5401;41.986;21.452;2023-04-07T00:22:11;98356.31;;;5.49;48.36
10700;BME280;5401;41.986;21.452;2023-04-07T00:24:38;98361.44;;;5.36;48.27
10700;BME280;5401;41.986;21.452;2023-04-07T00:27:06;98362.16;;;5.30;48.66
10700;BME280;5401;41.986;21.452;2023-04-07T00:29:35;98362.69;;;5.26;48.68
10700;BME280;5401;41.986;21.452;2023-04-07T00:32:02;98354.63;;;5.19;48.48
10700;BME280;5401;41.986;21.452;2023-04-07T00:34:29;98351.31;;;5.17;48.86
10700;BME280;5401;41.986;21.452;2023-04-07T00:36:57;98356.00;;;5.15;49.32
10700;BME280;5401;41.986;21.452;2023-04-07T00:39:26;98362.09;;;5.16;48.92
10700;BME280;5401;41.986;21.452;2023-04-07T00:41:53;98357.78;;;5.15;49.09
10700;BME280;5401;41.986;21.452;2023-04-07T00:44:21;98357.16;;;5.13;49.50
10700;BME280;5401;41.986;21.452;2023-04-07T00:46:50;98362.00;;;5.09;49.71
10700;BME280;5401;41.986;21.452;2023-04-07T00:49:17;98365.19;;;5.05;49.45
10700;BME280;5401;41.986;21.452;2023-04-07T00:51:45;98364.72;;;5.01;49.61
10700;BME280;5401;41.986;21.452;2023-04-07T00:54:13;98353.47;;;4.99;49.38
10700;BME280;5401;41.986;21.452;2023-04-07T00:56:41;98352.50;;;4.93;49.63
10700;BME280;5401;41.986;21.452;2023-04-07T00:59:08;98365.19;;;4.83;49.38
10700;BME280;5401;41.986;21.452;2023-04-07T01:01:41;98362.72;;;4.81;49.67
10700;BME280;5401;41.986;21.452;2023-04-07T01:04:21;98364.34;;;4.82;49.95
10700;BME280;5401;41.986;21.452;2023-04-07T01:06:55;98358.22;;;4.82;49.61
10700;BME280;5401;41.986;21.452;2023-04-07T01:09:32;98357.25;;;4.83;49.83
10700;BME280;5401;41.986;21.452;2023-04-07T01:12:04;98359.06;;;4.82;49.95
10700;BME280;5401;41.986;21.452;2023-04-07T01:14:39;98332.31;;;4.69;49.67
10700;BME280;5401;41.986;21.452;2023-04-07T01:17:09;98359.25;;;4.81;50.19
10700;BME280;5401;41.986;21.452;2023-04-07T01:19:43;98354.44;;;4.76;50.75
10700;BME280;5401;41.986;21.452;2023-04-07T01:22:16;98357.63;;;4.72;50.45
10700;BME280;5401;41.986;21.452;2023-04-07T01:25:05;98353.50;;;4.69;50.57
10700;BME280;5401;41.986;21.452;2023-04-07T01:27:42;98353.50;;;4.69;50.01
10700;BME280;5401;41.986;21.452;2023-04-07T01:30:17;98357.34;;;4.67;50.29
10700;BME280;5401;41.986;21.452;2023-04-07T01:32:49;98304.72;;;4.34;50.37
10700;BME280;5401;41.986;21.452;2023-04-07T01:35:19;98354.91;;;4.58;50.34
10700;BME280;5401;41.986;21.452;2023-04-07T01:37:48;98333.13;;;4.48;50.79
10700;BME280;5401;41.986;21.452;2023-04-07T01:40:17;98350.44;;;4.58;50.47
10700;BME280;5401;41.986;21.452;2023-04-07T01:42:46;98356.28;;;4.54;50.96
10700;BME280;5401;41.986;21.452;2023-04-07T01:45:16;98341.31;;;4.38;50.76
10700;BME280;5401;41.986;21.452;2023-04-07T01:47:45;98352.31;;;4.50;50.98
10700;BME280;5401;41.986;21.452;2023-04-07T01:50:13;98362.91;;;4.50;51.26
10700;BME280;5401;41.986;21.452;2023-04-07T01:52:41;98361.63;;;4.46;50.73
10700;BME280;5401;41.986;21.452;2023-04-07T01:55:09;98352.19;;;4.43;51.12
10700;BME280;5401;41.986;21.452;2023-04-07T01:57:37;98351.72;;;4.40;51.47
10700;BME280;5401;41.986;21.452;2023-04-07T02:00:06;98349.25;;;4.38;51.30
10700;BME280;5401;41.986;21.452;2023-04-07T02:02:36;98348.78;;;4.35;51.19
10700;BME280;5401;41.986;21.452;2023-04-07T02:05:08;98351.59;;;4.33;51.48
10700;BME280;5401;41.986;21.452;2023-04-07T02:07:43;98345.16;;;4.28;51.58
10700;BME280;5401;41.986;21.452;2023-04-07T02:10:14;98354.09;;;4.27;51.94
10700;BME280;5401;41.986;21.452;2023-04-07T02:12:45;98355.28;;;4.25;51.85
10700;BME280;5401;41.986;21.452;2023-04-07T02:15:14;98353.78;;;4.22;51.98
10700;BME280;5401;41.986;21.452;2023-04-07T02:17:46;98324.75;;;4.06;51.85
10700;BME280;5401;41.986;21.452;2023-04-07T02:20:15;98353.00;;;4.14;51.34
10700;BME280;5401;41.986;21.452;2023-04-07T02:22:43;98351.88;;;4.08;52.27
10700;BME280;5401;41.986;21.452;2023-04-07T02:25:22;98350.59;;;4.04;51.56
10700;BME280;5401;41.986;21.452;2023-04-07T02:27:50;98353.22;;;4.04;51.65
10700;BME280;5401;41.986;21.452;2023-04-07T02:30:18;98352.59;;;4.02;51.71
10700;BME280;5401;41.986;21.452;2023-04-07T02:32:47;98350.75;;;4.03;51.69
10700;BME280;5401;41.986;21.452;2023-04-07T02:35:15;98350.91;;;4.01;52.48
10700;BME280;5401;41.986;21.452;2023-04-07T02:37:43;98349.09;;;4.02;52.70
10700;BME280;5401;41.986;21.452;2023-04-07T02:40:11;98348.25;;;4.01;51.80
10700;BME280;5401;41.986;21.452;2023-04-07T02:42:38;98341.66;;;3.97;52.41
10700;BME280;5401;41.986;21.452;2023-04-07T02:45:07;98345.97;;;3.98;51.96
10700;BME280;5401;41.986;21.452;2023-04-07T02:47:35;98344.50;;;3.96;52.85
10700;BME280;5401;41.986;21.452;2023-04-07T02:50:05;98346.31;;;3.95;52.63
10700;BME280;5401;41.986;21.452;2023-04-07T02:52:33;98352.78;;;3.93;52.94
10700;BME280;5401;41.986;21.452;2023-04-07T02:55:00;98347.63;;;3.91;52.72
10700;BME280;5401;41.986;21.452;2023-04-07T02:57:28;98340.88;;;3.89;52.20
10700;BME280;5401;41.986;21.452;2023-04-07T02:59:56;98345.19;;;3.90;52.19
10700;BME280;5401;41.986;21.452;2023-04-07T03:02:23;98348.97;;;3.88;52.25
10700;BME280;5401;41.986;21.452;2023-04-07T03:04:51;98347.84;;;3.82;52.91
10700;BME280;5401;41.986;21.452;2023-04-07T03:07:20;98354.47;;;3.86;52.43
10700;BME280;5401;41.986;21.452;2023-04-07T03:09:48;98356.25;;;3.86;53.34
10700;BME280;5401;41.986;21.452;2023-04-07T03:12:15;98343.38;;;3.83;53.31
10700;BME280;5401;41.986;21.452;2023-04-07T03:14:43;98352.31;;;3.82;53.04
10700;BME280;5401;41.986;21.452;2023-04-07T03:17:10;98349.00;;;3.80;52.68
10700;BME280;5401;41.986;21.452;2023-04-07T03:19:38;98346.06;;;3.75;53.54
10700;BME280;5401;41.986;21.452;2023-04-07T03:22:05;98344.41;;;3.74;53.66
10700;BME280;5401;41.986;21.452;2023-04-07T03:24:34;98339.28;;;3.72;53.25
10700;BME280;5401;41.986;21.452;2023-04-07T03:27:02;98341.13;;;3.72;52.77
10700;BME280;5401;41.986;21.452;2023-04-07T03:29:30;98332.19;;;3.65;53.57
10700;BME280;5401;41.986;21.452;2023-04-07T03:31:57;98343.09;;;3.70;53.56
10700;BME280;5401;41.986;21.452;2023-04-07T03:34:25;98342.63;;;3.66;53.11
10700;BME280;5401;41.986;21.452;2023-04-07T03:36:53;98346.91;;;3.67;53.81
10700;BME280;5401;41.986;21.452;2023-04-07T03:39:20;98341.97;;;3.64;53.82
10700;BME280;5401;41.986;21.452;2023-04-07T03:41:49;98349.06;;;3.64;53.87
10700;BME280;5401;41.986;21.452;2023-04-07T03:44:16;98347.94;;;3.58;53.05
10700;BME280;5401;41.986;21.452;2023-04-07T03:46:44;98341.00;;;3.57;53.98
10700;BME280;5401;41.986;21.452;2023-04-07T03:49:13;98348.09;;;3.57;53.74
10700;BME280;5401;41.986;21.452;2023-04-07T03:51:40;98346.28;;;3.57;53.19
10700;BME280;5401;41.986;21.452;2023-04-07T03:54:08;98347.25;;;3.56;53.53
10700;BME280;5401;41.986;21.452;2023-04-07T03:56:35;98345.63;;;3.55;53.81
10700;BME280;5401;41.986;21.452;2023-04-07T03:59:05;98365.13;;;3.54;53.98
10700;BME280;5401;41.986;21.452;2023-04-07T04:01:32;98347.94;;;3.51;53.95
10700;BME280;5401;41.986;21.452;2023-04-07T04:04:01;98359.53;;;3.50;54.30
10700;BME280;5401;41.986;21.452;2023-04-07T04:06:28;98363.00;;;3.50;53.99
10700;BME280;5401;41.986;21.452;2023-04-07T04:08:56;98365.81;;;3.49;53.45
10700;BME280;5401;41.986;21.452;2023-04-07T04:11:24;98353.75;;;3.46;53.75
10700;BME280;5401;41.986;21.452;2023-04-07T04:13:52;98360.69;;;3.47;54.38
10700;BME280;5401;41.986;21.452;2023-04-07T04:16:21;98366.16;;;3.46;53.61
10700;BME280;5401;41.986;21.452;2023-04-07T04:18:48;98362.66;;;3.45;53.53
10700;BME280;5401;41.986;21.452;2023-04-07T04:21:16;98358.69;;;3.49;53.83
10700;BME280;5401;41.986;21.452;2023-04-07T04:23:43;98370.28;;;3.56;54.38
10700;BME280;5401;41.986;21.452;2023-04-07T04:26:10;98364.47;;;3.60;54.24
10700;BME280;5401;41.986;21.452;2023-04-07T04:28:38;98371.88;;;3.65;53.83
10700;BME280;5401;41.986;21.452;2023-04-07T04:31:06;98372.53;;;3.67;53.55
10700;BME280;5401;41.986;21.452;2023-04-07T04:33:34;98371.06;;;3.72;53.60
10700;BME280;5401;41.986;21.452;2023-04-07T04:36:02;98371.56;;;3.76;53.47
10700;BME280;5401;41.986;21.452;2023-04-07T04:38:30;98381.13;;;3.77;53.60
10700;BME280;5401;41.986;21.452;2023-04-07T04:40:58;98381.44;;;3.82;53.74
10700;BME280;5401;41.986;21.452;2023-04-07T04:43:25;98384.72;;;3.84;53.58
10700;BME280;5401;41.986;21.452;2023-04-07T04:45:53;98386.91;;;3.88;53.87
10700;BME280;5401;41.986;21.452;2023-04-07T04:48:21;98398.75;;;4.00;53.56
10700;BME280;5401;41.986;21.452;2023-04-07T04:50:50;98394.34;;;4.61;54.18
10700;BME280;5401;41.986;21.452;2023-04-07T04:53:17;98397.53;;;5.59;53.33
10700;BME280;5401;41.986;21.452;2023-04-07T04:55:44;98390.34;;;6.74;51.77
10700;BME280;5401;41.986;21.452;2023-04-07T04:58:17;98392.50;;;7.95;50.46
10700;BME280;5401;41.986;21.452;2023-04-07T05:00:44;98385.81;;;8.98;48.48
10700;BME280;5401;41.986;21.452;2023-04-07T05:03:12;98380.75;;;9.73;47.71
10700;BME280;5401;41.986;21.452;2023-04-07T05:05:39;98378.56;;;10.52;47.01
10700;BME280;5401;41.986;21.452;2023-04-07T05:08:10;98381.50;;;11.25;46.26
10700;BME280;5401;41.986;21.452;2023-04-07T05:10:37;98385.09;;;11.98;45.75
10700;BME280;5401;41.986;21.452;2023-04-07T05:13:06;98389.84;;;12.73;45.23
10700;BME280;5401;41.986;21.452;2023-04-07T05:15:33;98388.97;;;13.26;44.31
10700;BME280;5401;41.986;21.452;2023-04-07T05:18:01;98393.78;;;13.76;43.51
10700;BME280;5401;41.986;21.452;2023-04-07T05:20:28;98390.56;;;14.19;43.32
10700;BME280;5401;41.986;21.452;2023-04-07T05:22:56;98394.41;;;14.68;42.47
10700;BME280;5401;41.986;21.452;2023-04-07T05:25:25;98394.06;;;15.04;42.23
10700;BME280;5401;41.986;21.452;2023-04-07T05:27:52;98394.78;;;15.11;42.08
10700;BME280;5401;41.986;21.452;2023-04-07T05:30:20;98396.44;;;15.12;41.98
10700;BME280;5401;41.986;21.452;2023-04-07T05:32:47;98402.25;;;15.48;41.46
10700;BME280;5401;41.986;21.452;2023-04-07T05:35:15;98395.38;;;15.84;41.30
10700;BME280;5401;41.986;21.452;2023-04-07T05:37:42;98394.56;;;15.84;40.70
10700;BME280;5401;41.986;21.452;2023-04-07T05:40:11;98398.31;;;15.83;41.03
10700;BME280;5401;41.986;21.452;2023-04-07T05:42:40;98393.41;;;15.96;40.63
10700;BME280;5401;41.986;21.452;2023-04-07T05:45:09;98400.00;;;16.54;40.41
10700;BME280;5401;41.986;21.452;2023-04-07T05:47:37;98400.91;;;16.97;39.67
10700;BME280;5401;41.986;21.452;2023-04-07T05:50:06;98400.34;;;17.16;39.76
10700;BME280;5401;41.986;21.452;2023-04-07T05:52:33;98402.03;;;17.01;39.14
10700;BME280;5401;41.986;21.452;2023-04-07T05:55:01;98398.34;;;16.90;38.85
10700;BME280;5401;41.986;21.452;2023-04-07T05:57:28;98394.66;;;16.96;39.02
10700;BME280;5401;41.986;21.452;2023-04-07T05:59:57;98398.00;;;17.03;38.92
10700;BME280;5401;41.986;21.452;2023-04-07T06:02:25;98390.72;;;16.82;39.82
10700;BME280;5401;41.986;21.452;2023-04-07T06:04:52;98396.03;;;16.77;39.34
10700;BME280;5401;41.986;21.452;2023-04-07T06:07:19;98395.53;;;16.80;39.31
10700;BME280;5401;41.986;21.452;2023-04-07T06:09:47;98391.28;;;16.47;39.28
10700;BME280;5401;41.986;21.452;2023-04-07T06:12:14;98390.09;;;16.59;39.97
10700;BME280;5401;41.986;21.452;2023-04-07T06:14:42;98392.03;;;17.01;38.93
10700;BME280;5401;41.986;21.452;2023-04-07T06:17:12;98390.59;;;17.15;39.77
10700;BME280;5401;41.986;21.452;2023-04-07T06:19:39;98389.53;;;17.63;38.36
10700;BME280;5401;41.986;21.452;2023-04-07T06:22:07;98385.34;;;18.08;38.90
10700;BME280;5401;41.986;21.452;2023-04-07T06:24:35;98388.66;;;17.89;38.30
10700;BME280;5401;41.986;21.452;2023-04-07T06:27:02;98384.56;;;17.55;38.64
10700;BME280;5401;41.986;21.452;2023-04-07T06:29:31;98392.63;;;17.50;38.22
10700;BME280;5401;41.986;21.452;2023-04-07T06:31:59;98386.50;;;17.34;38.48
10700;BME280;5401;41.986;21.452;2023-04-07T06:34:28;98385.16;;;17.36;38.85
10700;BME280;5401;41.986;21.452;2023-04-07T06:36:56;98383.25;;;17.37;39.03
10700;BME280;5401;41.986;21.452;2023-04-07T06:39:25;98388.13;;;17.61;38.18
10700;BME280;5401;41.986;21.452;2023-04-07T06:41:54;98388.72;;;17.94;37.77
10700;BME280;5401;41.986;21.452;2023-04-07T06:44:22;98389.97;;;18.08;37.29
10700;BME280;5401;41.986;21.452;2023-04-07T06:46:50;98381.41;;;18.25;37.87
10700;BME280;5401;41.986;21.452;2023-04-07T06:49:18;98382.03;;;18.32;37.38
10700;BME280;5401;41.986;21.452;2023-04-07T06:51:47;98376.22;;;18.60;36.97
10700;BME280;5401;41.986;21.452;2023-04-07T06:54:14;98376.81;;;18.67;37.29
10700;BME280;5401;41.986;21.452;2023-04-07T06:56:42;98383.97;;;18.42;36.43
10700;BME280;5401;41.986;21.452;2023-04-07T06:59:10;98384.31;;;18.50;36.41
10700;BME280;5401;41.986;21.452;2023-04-07T07:01:37;98369.19;;;18.64;36.42
10700;BME280;5401;41.986;21.452;2023-04-07T07:04:05;98382.16;;;18.98;36.53
10700;BME280;5401;41.986;21.452;2023-04-07T07:06:32;98384.25;;;19.57;35.73
10700;BME280;5401;41.986;21.452;2023-04-07T07:09:01;98389.25;;;19.99;35.39
10700;BME280;5401;41.986;21.452;2023-04-07T07:11:29;98388.19;;;20.10;35.34
10700;BME280;5401;41.986;21.452;2023-04-07T07:13:56;98395.22;;;20.45;34.94
10700;BME280;5401;41.986;21.452;2023-04-07T07:16:25;98389.22;;;20.83;34.41
10700;BME280;5401;41.986;21.452;2023-04-07T07:18:53;98397.84;;;21.10;34.12
10700;BME280;5401;41.986;21.452;2023-04-07T07:21:21;98393.78;;;20.97;34.21
10700;BME280;5401;41.986;21.452;2023-04-07T07:23:49;98398.94;;;21.04;33.99
10700;BME280;5401;41.986;21.452;2023-04-07T07:26:18;98390.78;;;21.04;33.68
10700;BME280;5401;41.986;21.452;2023-04-07T07:28:45;98375.09;;;20.66;33.80
10700;BME280;5401;41.986;21.452;2023-04-07T07:31:13;98381.09;;;20.48;34.00
10700;BME280;5401;41.986;21.452;2023-04-07T07:33:41;98374.25;;;20.80;33.63
10700;BME280;5401;41.986;21.452;2023-04-07T07:36:11;98379.31;;;21.11;33.90
10700;BME280;5401;41.986;21.452;2023-04-07T07:38:38;98393.00;;;21.59;33.59
10700;BME280;5401;41.986;21.452;2023-04-07T07:41:06;98393.00;;;21.97;32.68
10700;BME280;5401;41.986;21.452;2023-04-07T07:43:35;98371.06;;;22.17;32.61
10700;BME280;5401;41.986;21.452;2023-04-07T07:46:02;98380.50;;;21.91;32.09
10700;BME280;5401;41.986;21.452;2023-04-07T07:48:30;98386.41;;;21.70;32.27
10700;BME280;5401;41.986;21.452;2023-04-07T07:50:58;98388.34;;;22.03;32.19
10700;BME280;5401;41.986;21.452;2023-04-07T07:53:25;98390.25;;;22.40;32.15
10700;BME280;5401;41.986;21.452;2023-04-07T07:55:53;98391.41;;;22.62;31.65
10700;BME280;5401;41.986;21.452;2023-04-07T07:58:21;98395.31;;;22.80;31.50
10700;BME280;5401;41.986;21.452;2023-04-07T08:00:50;98397.16;;;22.84;31.01
10700;BME280;5401;41.986;21.452;2023-04-07T08:03:17;98376.09;;;22.38;31.19
10700;BME280;5401;41.986;21.452;2023-04-07T08:05:47;98382.47;;;21.86;31.36
10700;BME280;5401;41.986;21.452;2023-04-07T08:08:15;98382.88;;;21.65;31.33
10700;BME280;5401;41.986;21.452;2023-04-07T08:10:43;98386.28;;;21.85;30.70
10700;BME280;5401;41.986;21.452;2023-04-07T08:13:11;98370.25;;;21.79;30.93
10700;BME280;5401;41.986;21.452;2023-04-07T08:15:39;98361.06;;;21.70;31.03
10700;BME280;5401;41.986;21.452;2023-04-07T08:18:07;98381.66;;;21.38;31.11
10700;BME280;5401;41.986;21.452;2023-04-07T08:20:36;98380.63;;;21.24;30.92
10700;BME280;5401;41.986;21.452;2023-04-07T08:23:04;98371.41;;;21.15;30.82
10700;BME280;5401;41.986;21.452;2023-04-07T08:25:31;98376.59;;;21.11;30.91
10700;BME280;5401;41.986;21.452;2023-04-07T08:27:59;98375.72;;;21.26;30.99
10700;BME280;5401;41.986;21.452;2023-04-07T08:30:26;98371.94;;;21.12;30.63
10700;BME280;5401;41.986;21.452;2023-04-07T08:32:54;98370.88;;;21.13;31.38
10700;BME280;5401;41.986;21.452;2023-04-07T08:35:24;98316.34;;;20.60;30.91
10700;BME280;5401;41.986;21.452;2023-04-07T08:37:51;98366.16;;;20.36;31.30
10700;BME280;5401;41.986;21.452;2023-04-07T08:40:19;98368.88;;;20.21;31.08
10700;BME280;5401;41.986;21.452;2023-04-07T08:42:48;98360.16;;;20.29;31.04
10700;BME280;5401;41.986;21.452;2023-04-07T08:45:16;98356.06;;;20.41;31.01
10700;BME280;5401;41.986;21.452;2023-04-07T08:47:45;98360.72;;;20.36;31.23
10700;BME280;5401;41.986;21.452;2023-04-07T08:50:16;98356.06;;;20.37;31.12
10700;BME280;5401;41.986;21.452;2023-04-07T08:52:49;98351.44;;;20.42;31.09
10700;BME280;5401;41.986;21.452;2023-04-07T08:55:17;98318.81;;;20.37;31.17
10700;BME280;5401;41.986;21.452;2023-04-07T08:57:46;98340.56;;;20.47;30.92
10700;BME280;5401;41.986;21.452;2023-04-07T09:00:14;98343.00;;;20.34;30.72
10700;BME280;5401;41.986;21.452;2023-04-07T09:02:42;98346.56;;;20.00;31.30
10700;BME280;5401;41.986;21.452;2023-04-07T09:05:11;98346.03;;;19.83;31.08
10700;BME280;5401;41.986;21.452;2023-04-07T09:07:39;98346.56;;;19.85;31.12
10700;BME280;5401;41.986;21.452;2023-04-07T09:10:09;98340.34;;;19.84;31.29
10700;BME280;5401;41.986;21.452;2023-04-07T09:12:37;98346.06;;;19.98;31.14
10700;BME280;5401;41.986;21.452;2023-04-07T09:15:06;98346.03;;;20.12;30.83
10700;BME280;5401;41.986;21.452;2023-04-07T09:17:34;98354.44;;;20.40;30.91
10700;BME280;5401;41.986;21.452;2023-04-07T09:20:02;98336.44;;;20.64;30.21
10700;BME280;5401;41.986;21.452;2023-04-07T09:22:34;98340.81;;;20.65;30.20
10700;BME280;5401;41.986;21.452;2023-04-07T09:25:11;98335.41;;;20.40;30.20
10700;BME280;5401;41.986;21.452;2023-04-07T09:27:39;98339.19;;;20.39;30.01
10700;BME280;5401;41.986;21.452;2023-04-07T09:30:10;98336.19;;;20.51;29.78
10700;BME280;5401;41.986;21.452;2023-04-07T09:32:39;98326.94;;;20.52;29.88
10700;BME280;5401;41.986;21.452;2023-04-07T09:35:09;98329.13;;;20.65;29.70
10700;BME280;5401;41.986;21.452;2023-04-07T09:37:36;98331.28;;;20.58;29.82
10700;BME280;5401;41.986;21.452;2023-04-07T09:40:05;98327.75;;;20.62;29.72
10700;BME280;5401;41.986;21.452;2023-04-07T09:42:35;98324.47;;;20.70;29.51
10700;BME280;5401;41.986;21.452;2023-04-07T09:45:10;98316.88;;;20.57;29.52
10700;BME280;5401;41.986;21.452;2023-04-07T09:47:38;98325.59;;;20.49;29.80
10700;BME280;5401;41.986;21.452;2023-04-07T09:50:06;98332.44;;;20.02;29.93
10700;BME280;5401;41.986;21.452;2023-04-07T09:52:57;98329.16;;;20.05;29.59
10700;BME280;5401;41.986;21.452;2023-04-07T09:55:25;98320.41;;;19.44;29.76
10700;BME280;5401;41.986;21.452;2023-04-07T09:57:55;98315.72;;;19.05;30.24
10700;BME280;5401;41.986;21.452;2023-04-07T10:00:23;98317.50;;;18.90;30.13
10700;BME280;5401;41.986;21.452;2023-04-07T10:02:51;98321.09;;;19.00;30.16
10700;BME280;5401;41.986;21.452;2023-04-07T10:05:19;98329.78;;;19.02;30.62
10700;BME280;5401;41.986;21.452;2023-04-07T10:07:47;98311.78;;;18.77;30.37
10700;BME280;5401;41.986;21.452;2023-04-07T10:10:15;98315.69;;;18.95;30.34
10700;BME280;5401;41.986;21.452;2023-04-07T10:12:43;98313.44;;;18.83;30.36
10700;BME280;5401;41.986;21.452;2023-04-07T10:15:13;98308.56;;;18.85;30.31
10700;BME280;5401;41.986;21.452;2023-04-07T10:17:45;98311.97;;;19.21;30.96
10700;BME280;5401;41.986;21.452;2023-04-07T10:20:14;98300.59;;;19.59;30.14
10700;BME280;5401;41.986;21.452;2023-04-07T10:22:44;98294.13;;;19.89;30.41
10700;BME280;5401;41.986;21.452;2023-04-07T10:25:16;98303.91;;;20.15;30.16
10700;BME280;5401;41.986;21.452;2023-04-07T10:27:48;98302.22;;;20.38;29.99
10700;BME280;5401;41.986;21.452;2023-04-07T10:30:22;98301.16;;;20.35;29.68
10700;BME280;5401;41.986;21.452;2023-04-07T10:32:52;98307.09;;;20.41;29.46
10700;BME280;5401;41.986;21.452;2023-04-07T10:35:21;98291.88;;;20.50;29.38
10700;BME280;5401;41.986;21.452;2023-04-07T10:38:11;98294.59;;;20.45;29.21
10700;BME280;5401;41.986;21.452;2023-04-07T10:40:43;98288.66;;;20.19;29.57
10700;BME280;5401;41.986;21.452;2023-04-07T10:43:11;98298.22;;;19.92;29.54
10700;BME280;5401;41.986;21.452;2023-04-07T10:45:54;98287.84;;;19.64;29.73
10700;BME280;5401;41.986;21.452;2023-04-07T10:48:25;98293.56;;;19.67;30.05
10700;BME280;5401;41.986;21.452;2023-04-07T10:51:21;98294.13;;;19.89;29.89
10700;BME280;5401;41.986;21.452;2023-04-07T10:57:18;98284.25;;;20.52;29.68
10700;BME280;5401;41.986;21.452;2023-04-07T11:00:15;98287.72;;;20.77;29.60
10700;BME280;5401;41.986;21.452;2023-04-07T11:02:44;98277.00;;;20.96;29.33
10700;BME280;5401;41.986;21.452;2023-04-07T11:05:20;98277.75;;;21.11;29.44
10700;BME280;5401;41.986;21.452;2023-04-07T11:07:51;98271.41;;;21.25;29.26
10700;BME280;5401;41.986;21.452;2023-04-07T11:10:20;98268.22;;;21.13;29.27
10700;BME280;5401;41.986;21.452;2023-04-07T11:13:05;98272.53;;;20.52;29.07
10700;BME280;5401;41.986;21.452;2023-04-07T11:15:33;98267.50;;;19.91;29.64
10700;BME280;5401;41.986;21.452;2023-04-07T11:18:13;98263.69;;;19.87;29.75
10700;BME280;5401;41.986;21.452;2023-04-07T11:20:46;98255.28;;;19.84;29.69
10700;BME280;5401;41.986;21.452;2023-04-07T11:23:15;98262.34;;;19.85;29.76
10700;BME280;5401;41.986;21.452;2023-04-07T11:25:46;98246.06;;;19.80;29.62
10700;BME280;5401;41.986;21.452;2023-04-07T11:28:14;98253.34;;;19.74;29.53
10700;BME280;5401;41.986;21.452;2023-04-07T11:30:47;98249.53;;;19.61;29.76
10700;BME280;5401;41.986;21.452;2023-04-07T11:33:17;98253.88;;;19.37;29.61
10700;BME280;5401;41.986;21.452;2023-04-07T11:35:53;98256.84;;;19.21;29.35
10700;BME280;5401;41.986;21.452;2023-04-07T11:38:23;98254.59;;;18.93;29.68
10700;BME280;5401;41.986;21.452;2023-04-07T11:40:52;98258.16;;;18.98;29.69
10700;BME280;5401;41.986;21.452;2023-04-07T11:43:22;98260.38;;;19.11;30.49
10700;BME280;5401;41.986;21.452;2023-04-07T11:46:06;98249.53;;;19.36;29.61
10700;BME280;5401;41.986;21.452;2023-04-07T11:48:36;98233.25;;;19.26;30.14
10700;BME280;5401;41.986;21.452;2023-04-07T11:51:04;98238.66;;;19.16;29.66
10700;BME280;5401;41.986;21.452;2023-04-07T11:53:34;98231.84;;;19.19;29.60
10700;BME280;5401;41.986;21.452;2023-04-07T11:56:04;98219.69;;;19.31;29.71
10700;BME280;5401;41.986;21.452;2023-04-07T11:58:35;98227.56;;;19.62;29.68
10700;BME280;5401;41.986;21.452;2023-04-07T12:01:05;98229.47;;;19.86;29.09
10700;BME280;5401;41.986;21.452;2023-04-07T12:03:35;98231.59;;;20.09;29.37
10700;BME280;5401;41.986;21.452;2023-04-07T12:06:03;98227.22;;;20.23;29.11
10700;BME280;5401;41.986;21.452;2023-04-07T12:08:39;98225.53;;;20.32;29.21
10700;BME280;5401;41.986;21.452;2023-04-07T12:11:07;98206.56;;;20.17;28.80
10700;BME280;5401;41.986;21.452;2023-04-07T12:13:35;98214.50;;;19.99;28.88
10700;BME280;5401;41.986;21.452;2023-04-07T12:16:03;98213.66;;;20.08;28.91
10700;BME280;5401;41.986;21.452;2023-04-07T12:18:30;98219.59;;;20.25;28.96
10700;BME280;5401;41.986;21.452;2023-04-07T12:20:59;98218.47;;;20.40;28.47
10700;BME280;5401;41.986;21.452;2023-04-07T12:23:27;98224.38;;;20.62;28.60
10700;BME280;5401;41.986;21.452;2023-04-07T12:25:57;98212.34;;;20.73;28.39
10700;BME280;5401;41.986;21.452;2023-04-07T12:28:24;98210.94;;;20.85;28.14
10700;BME280;5401;41.986;21.452;2023-04-07T12:30:53;98215.94;;;20.64;28.71
10700;BME280;5401;41.986;21.452;2023-04-07T12:33:20;98215.19;;;20.38;28.55
10700;BME280;5401;41.986;21.452;2023-04-07T12:35:47;98214.47;;;20.08;28.64
10700;BME280;5401;41.986;21.452;2023-04-07T12:38:16;98223.44;;;20.09;28.90
10700;BME280;5401;41.986;21.452;2023-04-07T12:40:44;98223.13;;;20.25;28.74
10700;BME280;5401;41.986;21.452;2023-04-07T12:43:12;98211.06;;;20.51;28.77
10700;BME280;5401;41.986;21.452;2023-04-07T12:45:39;98214.53;;;20.71;27.95
10700;BME280;5401;41.986;21.452;2023-04-07T12:48:06;98204.03;;;20.45;28.58
10700;BME280;5401;41.986;21.452;2023-04-07T12:50:34;98196.09;;;20.53;28.15
10700;BME280;5401;41.986;21.452;2023-04-07T12:53:02;98209.75;;;20.34;28.68
10700;BME280;5401;41.986;21.452;2023-04-07T12:55:31;98209.03;;;20.08;28.86
10700;BME280;5401;41.986;21.452;2023-04-07T12:58:00;98194.38;;;19.95;28.64
10700;BME280;5401;41.986;21.452;2023-04-07T13:00:28;98200.59;;;20.15;28.35
10700;BME280;5401;41.986;21.452;2023-04-07T13:02:56;98189.72;;;20.15;28.20
10700;BME280;5401;41.986;21.452;2023-04-07T13:05:23;98194.38;;;20.00;28.77
10700;BME280;5401;41.986;21.452;2023-04-07T13:07:51;98188.72;;;19.86;28.65
10700;BME280;5401;41.986;21.452;2023-04-07T13:10:18;98185.16;;;19.96;28.27
10700;BME280;5401;41.986;21.452;2023-04-07T13:12:47;98189.19;;;20.13;28.62
10700;BME280;5401;41.986;21.452;2023-04-07T13:15:15;98185.59;;;20.27;28.46
10700;BME280;5401;41.986;21.452;2023-04-07T13:17:42;98180.66;;;20.39;28.52
10700;BME280;5401;41.986;21.452;2023-04-07T13:20:10;98181.72;;;20.43;28.53